Terminal Aerodrome Forecast
Issued by NWS Duluth, MN

Home | Current Version | Previous Version | Text Only | Print | Product List | Glossary On
Versions: 1 2 3 4 5 6 7 8 9 10 11 12 13 14 15 16 17 18 19 20 21
000
FTUS43 KDLH 172345
TAFINL
TAF
KINL 172345Z 1800/1824 28012KT P6SM SCT035 SCT250
     FM180100 28008KT P6SM SCT250
     FM181000 VRB03KT P6SM VCSH BKN050
     FM181300 11004KT 4SM -SN BKN025
     FM181500 09005KT 1 1/2SM -SN OVC015
     FM182100 05009KT 5SM -SN BKN025=

USA.gov is the U.S. government's official web portal to all federal, state and local government web resources and services.